^^
Station Historical Data
Daily Summary for October 24, 2017 Units:  Metric    English   Both
« Previous Day
Next Day »
Daily Weekly Monthly Yearly Custom
  High: Low: Average:
Temperature: 32.1 °C 11.7 °C 20.3 °C
Dew Point: 7.8 °C -2.7 °C 5.5 °C
Humidity: 72% 12% 44%
Wind Speed: 33.8km/h 0km/h 11.4km/h
Wind Gust: 33.8km/h - -
Wind- - SSW
Pressure: 1013.4 hPa 1008 hPa -
Precipitation: 0 mm    
Historical Graphs
 
 
Tabular Data for October 24, 2017
Time Temperature Dew Point Pressure Wind Wind Speed Wind Gust Humidity Rainfall Rate (Hourly) solar Conditions
00:01 16.9 °C 6.4 °C 1013.4 hPa SW 14.3 km/h 20.9 km/h 50% 0 mm 0.0 W/m2
00:06 16.8 °C 6.3 °C 1013.4 hPa SW 16.3 km/h 20.9 km/h 50% 0 mm 0.0 W/m2
00:12 16.7 °C 6.5 °C 1013.4 hPa SW 13 km/h 19.3 km/h 51% 0 mm 0.0 W/m2
00:17 16.6 °C 6.4 °C 1013.4 hPa SW 13 km/h 19.3 km/h 51% 0 mm 0.0 W/m2
00:22 16.6 °C 6.4 °C 1013.4 hPa SW 16.3 km/h 22.5 km/h 51% 0 mm 0.0 W/m2
00:27 16.4 °C 6.2 °C 1013.4 hPa SSW 22.7 km/h 25.7 km/h 51% 0 mm 0.0 W/m2
00:32 16.4 °C 6.2 °C 1013.4 hPa SSW 19.5 km/h 24.1 km/h 51% 0 mm 0.0 W/m2
00:42 16.3 °C 6.1 °C 1013.4 hPa SSW 14.3 km/h 20.9 km/h 51% 0 mm 0.0 W/m2
00:47 16.2 °C 6.1 °C 1013.4 hPa SW 16.3 km/h 19.3 km/h 51% 0 mm 0.0 W/m2
00:52 16.1 °C 6 °C 1013.1 hPa SW 20.9 km/h 20.9 km/h 51% 0 mm 0.0 W/m2
00:57 16.1 °C 6 °C 1013.1 hPa SSW 20.9 km/h 25.7 km/h 51% 0 mm 0.0 W/m2
01:07 15.9 °C 6.1 °C 1013.1 hPa SSW 24.1 km/h 29 km/h 52% 0 mm 0.0 W/m2
01:17 15.8 °C 6.2 °C 1012.8 hPa SSW 14.3 km/h 20.9 km/h 53% 0 mm 0.0 W/m2
01:22 15.6 °C 6.3 °C 1012.8 hPa SSW 16.3 km/h 22.5 km/h 54% 0 mm 0.0 W/m2
01:27 15.5 °C 6.2 °C 1013.1 hPa SW 16.3 km/h 17.7 km/h 54% 0 mm 0.0 W/m2
01:37 15.3 °C 6.6 °C 1012.8 hPa SW 19.5 km/h 24.1 km/h 56% 0 mm 0.0 W/m2
01:42 15.3 °C 6.8 °C 1012.8 hPa SSW 19.5 km/h 20.9 km/h 57% 0 mm 0.0 W/m2
01:47 15.2 °C 6.7 °C 1012.8 hPa SSW 17.7 km/h 20.9 km/h 57% 0 mm 0.0 W/m2
01:57 15.1 °C 6.6 °C 1012.8 hPa SW 14.3 km/h 19.3 km/h 57% 0 mm 0.0 W/m2
02:02 15 °C 6.8 °C 1012.8 hPa SW 11.1 km/h 14.5 km/h 58% 0 mm 0.0 W/m2
02:12 14.9 °C 6.7 °C 1012.8 hPa SW 13 km/h 17.7 km/h 58% 0 mm 0.0 W/m2
02:22 14.8 °C 6.9 °C 1012.8 hPa SW 9.7 km/h 14.5 km/h 59% 0 mm 0.0 W/m2
02:32 14.6 °C 6.9 °C 1012.4 hPa SW 14.3 km/h 16.1 km/h 60% 0 mm 0.0 W/m2
02:37 14.5 °C 6.8 °C 1012.4 hPa SSW 13 km/h 19.3 km/h 60% 0 mm 0.0 W/m2
02:42 14.4 °C 7 °C 1012.4 hPa SSW 13 km/h 17.7 km/h 61% 0 mm 0.0 W/m2
02:47 14.4 °C 7 °C 1012.4 hPa SW 9.7 km/h 14.5 km/h 61% 0 mm 0.0 W/m2
02:52 14.3 °C 7.1 °C 1012.4 hPa SW 9.7 km/h 14.5 km/h 62% 0 mm 0.0 W/m2
03:03 14.2 °C 7.3 °C 1012.4 hPa SW 9.7 km/h 14.5 km/h 63% 0 mm 0.0 W/m2
03:12 14.1 °C 7.2 °C 1012.4 hPa SW 9.7 km/h 12.9 km/h 63% 0 mm 0.0 W/m2
03:17 14.1 °C 7.4 °C 1012.4 hPa SW 13 km/h 13 km/h 64% 0 mm 0.0 W/m2
03:23 13.9 °C 7.2 °C 1012.4 hPa SW 11.1 km/h 11.3 km/h 64% 0 mm 0.0 W/m2
03:28 13.9 °C 7.2 °C 1012.4 hPa SW 9.7 km/h 11.3 km/h 64% 0 mm 0.0 W/m2
03:33 13.8 °C 7.1 °C 1012.4 hPa SW 9.7 km/h 11.3 km/h 64% 0 mm 0.0 W/m2
03:43 13.7 °C 7 °C 1012.4 hPa SW 4.7 km/h 8 km/h 64% 0 mm 0.0 W/m2
03:48 13.5 °C 6.8 °C 1012.4 hPa SW 6.4 km/h 8 km/h 64% 0 mm 0.0 W/m2
03:54 13.4 °C 7 °C 1012.4 hPa SW 7.9 km/h 9.7 km/h 65% 0 mm 0.0 W/m2
04:04 13.3 °C 7.3 °C 1012.4 hPa SW 6.4 km/h 9.7 km/h 67% 0 mm 0.0 W/m2
04:09 13.3 °C 7.3 °C 1012.4 hPa SW 4.7 km/h 9.7 km/h 67% 0 mm 0.0 W/m2
04:19 13.1 °C 7.1 °C 1012.8 hPa SW 4.7 km/h 6.4 km/h 67% 0 mm 0.0 W/m2
04:24 13 °C 7 °C 1012.4 hPa SW 6.4 km/h 8 km/h 67% 0 mm 0.0 W/m2
04:29 12.8 °C 7 °C 1012.8 hPa SW 7.9 km/h 8 km/h 68% 0 mm 0.0 W/m2
04:34 12.8 °C 7 °C 1012.8 hPa SW 7.9 km/h 9.7 km/h 68% 0 mm 0.0 W/m2
04:39 12.7 °C 7.2 °C 1012.8 hPa SW 7.9 km/h 8 km/h 69% 0 mm 0.0 W/m2
04:44 12.6 °C 7.1 °C 1012.8 hPa SW 4.7 km/h 8 km/h 69% 0 mm 0.0 W/m2
04:49 12.6 °C 7.1 °C 1012.8 hPa SW 7.9 km/h 8 km/h 69% 0 mm 0.0 W/m2
04:59 12.4 °C 6.9 °C 1012.8 hPa SW 6.4 km/h 6.4 km/h 69% 0 mm 0.0 W/m2
05:19 12.1 °C 7.2 °C 1012.8 hPa SW 6.4 km/h 9.7 km/h 72% 0 mm 0.0 W/m2
05:34 12.4 °C 7.5 °C 1012.8 hPa SW 11.1 km/h 12.9 km/h 72% 0 mm 0.0 W/m2
05:39 12.6 °C 7.5 °C 1012.8 hPa SW 7.9 km/h 9.7 km/h 71% 0 mm 0.0 W/m2
05:45 12.5 °C 7.2 °C 1012.8 hPa SW 7.9 km/h 9.7 km/h 70% 0 mm 0.0 W/m2
05:55 12.3 °C 7 °C 1012.8 hPa SW 6.4 km/h 8 km/h 70% 0 mm 0.0 W/m2
06:05 11.9 °C 6.8 °C 1013.1 hPa Calm     71% 0 mm 0.0 W/m2
06:10 11.8 °C 6.5 °C 1012.8 hPa Calm     70% 0 mm 5.0 W/m2
06:15 11.7 °C 6.6 °C 1012.8 hPa Calm     71% 0 mm 9.0 W/m2
06:20 11.8 °C 6.5 °C 1012.8 hPa Calm     70% 0 mm 12.0 W/m2
06:26 12.1 °C 6.8 °C 1012.8 hPa Calm     70% 0 mm 14.0 W/m2
06:31 12.2 °C 6.7 °C 1012.8 hPa Calm     69% 0 mm 19.0 W/m2
06:42 12.3 °C 6.6 °C 1013.1 hPa Calm     68% 0 mm 33.0 W/m2
06:49 12.4 °C 6.9 °C 1012.8 hPa Calm     69% 0 mm 44.0 W/m2
06:56 12.9 °C 6.7 °C 1013.1 hPa Calm     66% 0 mm 69.0 W/m2
07:10 13.5 °C 7 °C 1013.1 hPa Calm     65% 0 mm 93.0 W/m2
07:18 14.1 °C 7.4 °C 1013.1 hPa Calm     64% 0 mm 125.0 W/m2
07:27 14.9 °C 7 °C 1013.1 hPa Calm     59% 0 mm 156.0 W/m2
08:43 17.7 °C 6.2 °C 1012.8 hPa SW 13 km/h 14.5 km/h 47% 0 mm 366.0 W/m2
08:52 18.2 °C 6.4 °C 1013.1 hPa SW 6.4 km/h 9.7 km/h 46% 0 mm 410.0 W/m2
09:07 18.9 °C 6 °C 1012.8 hPa SW 11.1 km/h 12.9 km/h 43% 0 mm 457.0 W/m2
09:12 18.9 °C 6 °C 1012.8 hPa SW 11.1 km/h 12.9 km/h 43% 0 mm 457.0 W/m2
09:28 19.7 °C 6.1 °C 1012.8 hPa SW 16.3 km/h 17.7 km/h 41% 0 mm 499.0 W/m2
09:42 20.6 °C 6.2 °C 1012.4 hPa SW 11.1 km/h 14.5 km/h 39% 0 mm 538.0 W/m2
09:47 21.2 °C 5.9 °C 1012.4 hPa SW 9.7 km/h 12.9 km/h 37% 0 mm 564.0 W/m2
09:53 21.2 °C 5.9 °C 1012.4 hPa SW 9.7 km/h 12.9 km/h 37% 0 mm 564.0 W/m2
10:47 24.2 °C 5.5 °C 1011.7 hPa Calm     30% 0 mm 694.0 W/m2
10:53 24.6 °C 4.9 °C 1012.1 hPa SW 9.7 km/h 11.3 km/h 28% 0 mm 710.0 W/m2
11:04 24.9 °C 5.1 °C 1011.7 hPa SW 13 km/h 16.1 km/h 28% 0 mm 726.0 W/m2
11:39 26 °C 4.4 °C 1011.4 hPa SW 13 km/h 17.7 km/h 25% 0 mm 770.0 W/m2
11:44 26.3 °C 4.7 °C 1011.4 hPa SW 14.3 km/h 19.3 km/h 25% 0 mm 777.0 W/m2
11:49 26.4 °C 4.8 °C 1011.4 hPa SW 13 km/h 17.7 km/h 25% 0 mm 780.0 W/m2
11:59 26.7 °C 3.8 °C 1011.1 hPa SW 9.7 km/h 16.1 km/h 23% 0 mm 788.0 W/m2
12:14 27.4 °C 4.4 °C 1011.1 hPa SW 13 km/h 20.9 km/h 23% 0 mm 793.0 W/m2
12:21 27.4 °C 4.4 °C 1011.1 hPa SW 13 km/h 20.9 km/h 23% 0 mm 793.0 W/m2
12:34 27.8 °C 4.1 °C 1010.7 hPa SW 7.9 km/h 16.1 km/h 22% 0 mm 803.0 W/m2
12:44 28.3 °C 2.5 °C 1010.4 hPa SW 4.7 km/h 17.7 km/h 19% 0 mm 803.0 W/m2
13:05 28.7 °C 2.8 °C 1010.4 hPa SW 6.4 km/h 9.7 km/h 19% 0 mm 802.0 W/m2
13:22 29.5 °C 4.2 °C 1010 hPa SW 6.4 km/h 11.3 km/h 20% 0 mm 793.0 W/m2
13:40 29.9 °C 4.5 °C 1010 hPa SSW 9.7 km/h 14.5 km/h 20% 0 mm 777.0 W/m2
13:50 30.1 °C 3.9 °C 1009.7 hPa SSW 7.9 km/h 11.3 km/h 19% 0 mm 763.0 W/m2
14:11 30.4 °C 4.2 °C 1009.4 hPa SW 6.4 km/h 17.7 km/h 19% 0 mm 744.0 W/m2
14:27 30.8 °C 3.7 °C 1009.4 hPa SW 6.4 km/h 14.5 km/h 18% 0 mm 724.0 W/m2
14:42 31.2 °C 4.1 °C 1009 hPa SW 11.1 km/h 12.9 km/h 18% 0 mm 700.0 W/m2
14:50 31.1 °C 4 °C 1008.7 hPa Calm     18% 0 mm 671.0 W/m2
15:06 31.4 °C 4.2 °C 1008.7 hPa SW 7.9 km/h 12.9 km/h 18% 0 mm 640.0 W/m2
15:21 31.6 °C 4.4 °C 1008.4 hPa SW 14.3 km/h 16.1 km/h 18% 0 mm 606.0 W/m2
15:36 31.6 °C 3.6 °C 1008.4 hPa SW 1.4 km/h 11.3 km/h 17% 0 mm 570.0 W/m2
15:51 31.5 °C 3.5 °C 1008 hPa Calm   8 km/h 17% 0 mm 531.0 W/m2
16:06 31.8 °C 2.9 °C 1008 hPa SW 9.7 km/h 12.9 km/h 16% 0 mm 487.0 W/m2
16:12 31.8 °C 2.9 °C 1008 hPa SW 9.7 km/h 12.9 km/h 16% 0 mm 487.0 W/m2
16:21 31.9 °C 2 °C 1008 hPa Calm   8 km/h 15% 0 mm 446.0 W/m2
16:36 32.1 °C 2.2 °C 1008 hPa SW 11.1 km/h 12.9 km/h 15% 0 mm 406.0 W/m2
16:51 32 °C 3 °C 1008 hPa SSW 13 km/h 16.1 km/h 16% 0 mm 352.0 W/m2
17:13 31.9 °C 2 °C 1008 hPa SSW 16.3 km/h 17.7 km/h 15% 0 mm 304.0 W/m2
17:27 31.9 °C 2 °C 1008 hPa SSW 20.9 km/h 20.9 km/h 15% 0 mm 262.0 W/m2
17:37 31.6 °C 0.9 °C 1008 hPa SSW 19.5 km/h 29 km/h 14% 0 mm 214.0 W/m2
17:51 31.5 °C -0.3 °C 1008 hPa SSW 24.1 km/h 27.4 km/h 13% 0 mm 179.0 W/m2
18:00 31.3 °C -0.4 °C 1008 hPa South 19.5 km/h 30.6 km/h 13% 0 mm 141.0 W/m2
18:07 30.9 °C -0.7 °C 1008 hPa South 17.7 km/h 29 km/h 13% 0 mm 109.0 W/m2
18:22 30.8 °C -1.9 °C 1008 hPa South 28.8 km/h 33.8 km/h 12% 0 mm 76.0 W/m2
18:32 30.4 °C -2.2 °C 1008.4 hPa South 25.9 km/h 30.6 km/h 12% 0 mm 47.0 W/m2
18:37 30 °C -2.5 °C 1008.4 hPa South 33.8 km/h 33.8 km/h 12% 0 mm 25.0 W/m2
18:52 29.7 °C -2.7 °C 1008.4 hPa South 22.7 km/h 29 km/h 12% 0 mm 12.0 W/m2
20:24 26.2 °C 5.7 °C 1010 hPa SSW 28.8 km/h 29 km/h 27% 0 mm 0.0 W/m2
20:39 25.6 °C 6.2 °C 1010.4 hPa SSW 25.9 km/h 32.2 km/h 29% 0 mm 0.0 W/m2
20:54 25 °C 6.7 °C 1010.4 hPa SSW 19.5 km/h 27.4 km/h 31% 0 mm 0.0 W/m2
21:09 24.6 °C 6.8 °C 1010.7 hPa SSW 22.7 km/h 30.6 km/h 32% 0 mm 0.0 W/m2
21:18 23.9 °C 7.1 °C 1010.7 hPa SSW 20.9 km/h 29 km/h 34% 0 mm 0.0 W/m2
21:38 23.2 °C 7.7 °C 1011.1 hPa SSW 20.9 km/h 27.4 km/h 37% 0 mm 0.0 W/m2
21:53 22.8 °C 7.3 °C 1011.4 hPa SSW 14.3 km/h 25.7 km/h 37% 0 mm 0.0 W/m2
22:08 22.4 °C 7.4 °C 1011.4 hPa SSW 16.3 km/h 20.9 km/h 38% 0 mm 0.0 W/m2
22:19 22.2 °C 7.6 °C 1011.4 hPa SSW 14.3 km/h 25.7 km/h 39% 0 mm 0.0 W/m2
22:33 21.8 °C 7.6 °C 1011.7 hPa SSW 13 km/h 22.5 km/h 40% 0 mm 0.0 W/m2
22:40 21.6 °C 7.8 °C 1011.7 hPa SSW 22.7 km/h 24.1 km/h 41% 0 mm 0.0 W/m2
Canyon Roadhouse, Fishriver Canyon, Namibia
Compliments of Weather Underground - 2.25 mb